createdAt,value
2018-10-16T00:02:14.127Z,29.97
2018-10-16T00:04:44.104Z,30.14
2018-10-16T00:07:14.147Z,30.03
2018-10-16T00:09:44.147Z,29.71
2018-10-16T00:12:14.140Z,29.84
2018-10-16T00:14:44.171Z,29.85
2018-10-16T00:17:14.173Z,29.76
2018-10-16T00:19:44.199Z,29.50
2018-10-16T00:22:14.236Z,29.66
2018-10-16T00:24:44.371Z,29.60
2018-10-16T00:27:14.344Z,29.61
2018-10-16T00:29:44.369Z,29.72
2018-10-16T00:32:14.278Z,29.58
2018-10-16T00:34:44.231Z,29.62
2018-10-16T00:37:14.299Z,29.58
2018-10-16T00:39:44.327Z,29.48
2018-10-16T00:42:14.441Z,29.47
2018-10-16T00:44:44.378Z,29.12
2018-10-16T00:47:14.376Z,29.28
2018-10-16T00:49:44.675Z,29.33
2018-10-16T00:52:14.915Z,29.04
2018-10-16T00:54:44.941Z,29.17
2018-10-16T00:57:14.931Z,29.28
2018-10-16T00:59:44.947Z,28.97
2018-10-16T01:02:15.063Z,29.06
2018-10-16T01:04:45.113Z,29.22
2018-10-16T01:07:15.095Z,28.78
2018-10-16T01:09:45.148Z,28.66
2018-10-16T01:12:15.119Z,28.75
2018-10-16T01:14:45.231Z,28.69
2018-10-16T01:17:15.166Z,28.64
2018-10-16T01:19:45.171Z,28.39
2018-10-16T01:22:15.422Z,28.82
2018-10-16T01:24:45.405Z,28.78
2018-10-16T01:27:15.351Z,28.49
2018-10-16T01:29:45.871Z,28.72
2018-10-16T01:32:15.757Z,28.47
2018-10-16T01:34:45.779Z,28.53
2018-10-16T01:37:15.689Z,28.31
2018-10-16T01:39:45.712Z,28.34
2018-10-16T01:42:15.715Z,28.44
2018-10-16T01:44:45.783Z,28.39
2018-10-16T01:47:15.864Z,28.17
2018-10-16T01:49:45.784Z,28.18
2018-10-16T01:52:15.808Z,28.12
2018-10-16T01:54:45.691Z,28.09
2018-10-16T01:57:16.119Z,28.19
2018-10-16T01:59:46.059Z,27.89
2018-10-16T02:02:15.830Z,28.06
2018-10-16T02:04:45.596Z,27.99
2018-10-16T02:07:15.321Z,27.93
2018-10-16T02:09:44.966Z,27.87
2018-10-16T02:12:14.574Z,27.57
2018-10-16T02:14:45.027Z,27.76
2018-10-16T02:17:14.643Z,27.87
2018-10-16T02:19:44.397Z,27.92
2018-10-16T02:22:14.018Z,27.66
2018-10-16T02:24:43.690Z,27.53
2018-10-16T02:27:13.362Z,27.67
2018-10-16T02:29:43.038Z,27.49
2018-10-16T02:32:13.640Z,27.60
2018-10-16T02:34:43.707Z,27.63
2018-10-16T02:37:13.750Z,27.50
2018-10-16T02:39:43.603Z,27.56
2018-10-16T02:42:13.842Z,27.42
2018-10-16T02:44:43.847Z,27.42
2018-10-16T02:47:13.787Z,27.27
2018-10-16T02:49:43.776Z,27.25
2018-10-16T02:52:13.821Z,27.16
2018-10-16T02:54:43.803Z,27.44
2018-10-16T02:57:13.751Z,27.36
2018-10-16T02:59:43.776Z,27.35
2018-10-16T03:02:13.767Z,27.26
2018-10-16T03:04:43.779Z,27.18
2018-10-16T03:07:13.779Z,27.27
2018-10-16T03:09:43.799Z,27.31
2018-10-16T03:12:13.461Z,27.22
2018-10-16T03:14:43.170Z,27.10
2018-10-16T03:17:12.846Z,27.13
2018-10-16T03:19:42.561Z,27.03
2018-10-16T03:22:12.286Z,27.01
2018-10-16T03:24:41.984Z,27.04
2018-10-16T03:27:11.684Z,26.97
2018-10-16T03:29:41.290Z,27.00
2018-10-16T03:32:10.995Z,26.83
2018-10-16T03:34:40.566Z,26.74
2018-10-16T03:37:10.219Z,26.74
2018-10-16T03:39:39.785Z,26.84
2018-10-16T03:42:09.390Z,26.86
2018-10-16T03:44:39.065Z,26.84
2018-10-16T03:47:08.638Z,26.72
2018-10-16T03:49:38.206Z,26.77
2018-10-16T03:52:07.814Z,26.71
2018-10-16T03:54:37.450Z,26.65
2018-10-16T03:57:07.336Z,26.69
2018-10-16T03:59:36.978Z,26.63
2018-10-16T04:02:06.654Z,26.48
2018-10-16T04:04:36.389Z,26.59
2018-10-16T04:07:06.540Z,26.56
2018-10-16T04:09:36.321Z,26.58
2018-10-16T04:12:06.122Z,26.43
2018-10-16T04:14:35.842Z,26.48
2018-10-16T04:17:05.718Z,26.57
2018-10-16T04:19:35.518Z,26.51
2018-10-16T04:22:05.146Z,26.47
2018-10-16T04:24:34.906Z,26.49
2018-10-16T04:27:04.561Z,26.49
2018-10-16T04:29:34.605Z,26.42
2018-10-16T04:32:04.183Z,26.43
2018-10-16T04:34:34.543Z,26.47
2018-10-16T04:37:04.613Z,26.52
2018-10-16T04:39:34.299Z,26.44
2018-10-16T04:42:04.062Z,26.40
2018-10-16T04:44:34.246Z,26.38
2018-10-16T04:47:04.030Z,26.33
2018-10-16T04:49:33.778Z,26.18
2018-10-16T04:52:04.022Z,26.27
2018-10-16T04:54:33.768Z,26.23
2018-10-16T04:57:03.477Z,26.21
2018-10-16T04:59:33.157Z,26.11
2018-10-16T05:02:03.182Z,26.12
2018-10-16T05:04:33.155Z,26.08
2018-10-16T05:07:02.866Z,26.13
2018-10-16T05:09:32.495Z,26.07
2018-10-16T05:12:02.258Z,26.19
2018-10-16T05:14:31.955Z,26.10
2018-10-16T05:17:01.626Z,26.02
2018-10-16T05:19:31.416Z,25.97
2018-10-16T05:22:01.039Z,26.08
2018-10-16T05:24:30.709Z,26.13
2018-10-16T05:27:00.290Z,26.16
2018-10-16T05:29:29.954Z,26.02
2018-10-16T05:31:59.648Z,26.09
2018-10-16T05:34:29.414Z,25.94
2018-10-16T05:36:59.058Z,25.84
2018-10-16T05:39:28.725Z,25.85
2018-10-16T05:41:58.438Z,25.84
2018-10-16T05:44:28.113Z,25.87
2018-10-16T05:46:57.851Z,25.83
2018-10-16T05:49:27.454Z,25.86
2018-10-16T05:51:57.274Z,25.73
2018-10-16T05:54:27.035Z,25.66
2018-10-16T05:56:56.690Z,25.58
2018-10-16T05:59:26.257Z,25.81
2018-10-16T06:01:55.962Z,25.65
2018-10-16T06:04:25.705Z,25.67
2018-10-16T06:06:55.763Z,25.73
2018-10-16T06:09:25.681Z,25.43
2018-10-16T06:11:55.886Z,25.56
2018-10-16T06:14:25.674Z,25.46
2018-10-16T06:16:55.303Z,25.59
2018-10-16T06:19:24.973Z,25.66
2018-10-16T06:21:54.651Z,25.70
2018-10-16T06:24:24.320Z,25.66
2018-10-16T06:26:54.103Z,25.63
2018-10-16T06:29:23.774Z,25.58
2018-10-16T06:31:53.750Z,25.52
2018-10-16T06:34:23.435Z,25.52
2018-10-16T06:36:53.142Z,25.48
2018-10-16T06:39:22.738Z,25.42
2018-10-16T06:41:52.729Z,25.41
2018-10-16T06:44:22.466Z,25.46
2018-10-16T06:46:52.174Z,25.50
2018-10-16T06:49:21.811Z,25.45
2018-10-16T06:51:51.489Z,25.39
2018-10-16T06:54:21.193Z,25.42
2018-10-16T06:56:50.946Z,25.37
2018-10-16T06:59:20.621Z,25.39
2018-10-16T07:01:50.314Z,25.31
2018-10-16T07:04:19.934Z,25.35
2018-10-16T07:06:49.658Z,25.35
2018-10-16T07:09:19.582Z,25.35
2018-10-16T07:11:49.357Z,25.30
2018-10-16T07:14:19.106Z,25.31
2018-10-16T07:16:48.858Z,25.27
2018-10-16T07:19:18.550Z,25.29
2018-10-16T07:21:48.646Z,25.26
2018-10-16T07:24:18.314Z,25.31
2018-10-16T07:26:48.301Z,25.27
2018-10-16T07:29:18.101Z,25.28
2018-10-16T07:31:47.822Z,25.24
2018-10-16T07:34:17.550Z,25.19
2018-10-16T07:36:47.218Z,25.21
2018-10-16T07:39:17.307Z,25.20
2018-10-16T07:41:46.990Z,25.20
2018-10-16T07:44:16.744Z,25.17
2018-10-16T07:46:46.422Z,25.16
2018-10-16T07:49:16.122Z,25.15
2018-10-16T07:51:45.778Z,25.17
2018-10-16T07:54:15.620Z,25.14
2018-10-16T07:56:45.574Z,25.13
2018-10-16T07:59:15.262Z,25.11
2018-10-16T08:01:45.211Z,25.10
2018-10-16T08:04:15.067Z,25.11
2018-10-16T08:06:44.774Z,25.05
2018-10-16T08:09:15.747Z,24.97
2018-10-16T08:11:47.702Z,24.97
2018-10-16T08:14:18.293Z,25.00
2018-10-16T08:16:49.371Z,25.04
2018-10-16T08:19:19.302Z,25.04
2018-10-16T08:21:48.929Z,24.91
2018-10-16T08:24:18.916Z,24.89
2018-10-16T08:26:48.636Z,25.03
2018-10-16T08:29:18.262Z,24.91
2018-10-16T08:31:47.999Z,24.94
2018-10-16T08:34:17.962Z,24.93
2018-10-16T08:36:48.528Z,24.95
2018-10-16T08:39:21.318Z,24.97
2018-10-16T08:42:34.994Z,24.95
2018-10-16T08:45:16.698Z,24.87
2018-10-16T08:47:58.134Z,24.90
2018-10-16T08:50:40.058Z,24.89
2018-10-16T08:53:09.702Z,24.88
2018-10-16T08:55:39.439Z,24.84
2018-10-16T08:58:09.134Z,24.87
2018-10-16T09:00:40.171Z,24.86
2018-10-16T09:03:10.003Z,24.83
2018-10-16T09:05:39.593Z,24.80
2018-10-16T09:08:09.302Z,24.73
2018-10-16T09:10:39.050Z,24.74
2018-10-16T09:13:08.788Z,24.75
2018-10-16T09:15:38.307Z,24.73
2018-10-16T09:18:08.026Z,24.71
2018-10-16T09:20:37.797Z,24.72
2018-10-16T09:23:07.511Z,24.76
2018-10-16T09:25:37.295Z,24.68
2018-10-16T09:28:07.058Z,24.63
2018-10-16T09:30:36.782Z,24.64
2018-10-16T09:33:06.618Z,24.68
2018-10-16T09:35:36.294Z,24.60
2018-10-16T09:38:06.443Z,24.62
2018-10-16T09:40:36.076Z,24.57
2018-10-16T09:43:05.998Z,24.55
2018-10-16T09:45:35.632Z,24.54
2018-10-16T09:48:05.886Z,24.50
2018-10-16T09:50:35.558Z,24.43
2018-10-16T09:53:05.814Z,24.47
2018-10-16T09:55:35.486Z,24.47
2018-10-16T09:58:05.537Z,24.41
2018-10-16T10:00:40.437Z,24.25
2018-10-16T10:03:10.142Z,24.34
2018-10-16T10:05:39.734Z,24.37
2018-10-16T10:08:09.723Z,24.35
2018-10-16T10:10:39.560Z,24.34
2018-10-16T10:13:09.614Z,24.35
2018-10-16T10:15:39.849Z,24.35
2018-10-16T10:18:09.525Z,24.33
2018-10-16T10:20:39.643Z,24.34
2018-10-16T10:23:09.400Z,24.34
2018-10-16T10:25:39.035Z,24.26
2018-10-16T10:28:09.034Z,24.27
2018-10-16T10:30:38.977Z,24.31
2018-10-16T10:33:08.666Z,24.32
2018-10-16T10:35:38.499Z,24.32
2018-10-16T10:38:08.493Z,24.31
2018-10-16T10:40:38.741Z,24.27
2018-10-16T10:43:08.315Z,24.22
2018-10-16T10:45:38.070Z,24.27
2018-10-16T10:48:07.765Z,24.28
2018-10-16T10:50:37.709Z,24.25
2018-10-16T10:53:07.570Z,24.26
2018-10-16T10:55:37.658Z,24.29
2018-10-16T10:58:09.934Z,24.22
2018-10-16T11:00:40.070Z,24.26
2018-10-16T11:03:10.491Z,24.26
2018-10-16T11:05:40.187Z,24.30
2018-10-16T11:08:09.862Z,24.27
2018-10-16T11:10:39.929Z,24.27
2018-10-16T11:13:09.608Z,24.30
2018-10-16T11:15:39.419Z,24.32
2018-10-16T11:18:09.348Z,24.28
2018-10-16T11:20:39.143Z,24.28
2018-10-16T11:23:09.638Z,24.26
2018-10-16T11:25:39.346Z,24.21
2018-10-16T11:28:09.998Z,24.24
2018-10-16T11:30:39.909Z,24.29
2018-10-16T11:33:09.599Z,24.30
2018-10-16T11:35:39.114Z,24.31
2018-10-16T11:38:08.886Z,24.26
2018-10-16T11:40:38.615Z,24.26
2018-10-16T11:43:08.326Z,24.26
2018-10-16T11:45:37.968Z,24.27
2018-10-16T11:48:07.637Z,24.26
2018-10-16T11:50:37.367Z,24.16
2018-10-16T11:53:06.880Z,24.24
2018-10-16T11:55:36.441Z,24.27
2018-10-16T11:58:06.098Z,24.29
2018-10-16T12:00:35.811Z,24.31
2018-10-16T12:03:05.458Z,24.29
2018-10-16T12:05:35.422Z,24.27
2018-10-16T12:08:05.230Z,24.28
2018-10-16T12:10:34.981Z,24.27
2018-10-16T12:13:05.173Z,24.24
2018-10-16T12:15:34.875Z,24.26
2018-10-16T12:18:11.747Z,24.25
2018-10-16T12:20:44.924Z,24.24
2018-10-16T12:23:14.686Z,24.25
2018-10-16T12:25:44.755Z,24.15
2018-10-16T12:28:14.394Z,24.14
2018-10-16T12:30:44.511Z,24.14
2018-10-16T12:33:14.257Z,24.17
2018-10-16T12:35:44.046Z,24.15
2018-10-16T12:38:14.029Z,24.11
2018-10-16T12:40:43.785Z,24.12
2018-10-16T12:43:13.512Z,24.16
2018-10-16T12:45:43.074Z,24.17
2018-10-16T12:48:12.795Z,24.15
2018-10-16T12:50:42.653Z,24.13
2018-10-16T12:53:12.394Z,24.13
2018-10-16T12:55:41.946Z,24.05
2018-10-16T12:58:11.666Z,24.03
2018-10-16T13:00:41.343Z,23.98
2018-10-16T13:03:11.063Z,24.08
2018-10-16T13:05:40.650Z,24.11
2018-10-16T13:08:10.524Z,24.11
2018-10-16T13:10:40.098Z,24.10
2018-10-16T13:13:09.867Z,24.10
2018-10-16T13:15:39.536Z,24.10
2018-10-16T13:18:09.275Z,24.09
2018-10-16T13:20:39.414Z,24.10
2018-10-16T13:23:09.567Z,24.03
2018-10-16T13:25:39.470Z,24.08
2018-10-16T13:28:09.263Z,23.90
2018-10-16T13:30:39.466Z,23.39
2018-10-16T13:33:08.962Z,23.68
2018-10-16T13:35:38.984Z,23.66
2018-10-16T13:38:08.770Z,23.37
2018-10-16T13:40:38.518Z,23.66
2018-10-16T13:43:08.366Z,23.78
2018-10-16T13:45:38.079Z,23.76
2018-10-16T13:48:07.742Z,23.78
2018-10-16T13:50:37.510Z,23.81
2018-10-16T13:53:07.387Z,23.81
2018-10-16T13:55:37.005Z,23.65
2018-10-16T13:58:06.919Z,23.72
2018-10-16T14:00:36.466Z,23.78
2018-10-16T14:03:06.250Z,23.72
2018-10-16T14:05:36.042Z,23.73
2018-10-16T14:08:05.874Z,23.74
2018-10-16T14:10:35.750Z,23.63
2018-10-16T14:13:06.138Z,23.64
2018-10-16T14:15:35.935Z,23.57
2018-10-16T14:18:06.174Z,23.16
2018-10-16T14:20:35.958Z,23.39
2018-10-16T14:23:05.683Z,23.38
2018-10-16T14:25:35.357Z,23.38
2018-10-16T14:28:05.380Z,23.39
2018-10-16T14:30:35.058Z,23.50
2018-10-16T14:33:10.499Z,23.54
2018-10-16T14:35:40.450Z,23.56
2018-10-16T14:38:10.629Z,23.54
2018-10-16T14:40:40.372Z,23.56
2018-10-16T14:43:10.054Z,23.28
2018-10-16T14:45:39.703Z,22.94
2018-10-16T14:48:10.105Z,23.24
2018-10-16T14:50:39.753Z,23.40
2018-10-16T14:53:09.570Z,23.44
2018-10-16T14:55:39.338Z,23.46
2018-10-16T14:58:09.406Z,23.44
2018-10-16T15:00:40.908Z,23.46
2018-10-16T15:03:10.823Z,23.39
2018-10-16T15:05:40.810Z,23.46
2018-10-16T15:08:10.610Z,23.47
2018-10-16T15:10:40.650Z,23.51
2018-10-16T15:13:10.725Z,23.51
2018-10-16T15:15:40.470Z,23.49
2018-10-16T15:18:10.213Z,23.50
2018-10-16T15:20:40.223Z,23.41
2018-10-16T15:23:10.090Z,23.46
2018-10-16T15:25:41.617Z,23.45
2018-10-16T15:28:11.879Z,23.34
2018-10-16T15:30:42.154Z,23.33
2018-10-16T15:33:11.933Z,23.37
2018-10-16T15:35:41.728Z,23.38
2018-10-16T15:38:11.500Z,23.36
2018-10-16T15:40:41.010Z,23.38
2018-10-16T15:43:10.786Z,23.37
2018-10-16T15:45:40.527Z,23.34
2018-10-16T15:48:10.299Z,23.34
2018-10-16T15:50:40.272Z,23.35
2018-10-16T15:53:09.998Z,23.32
2018-10-16T15:55:39.774Z,23.35
2018-10-16T15:58:10.087Z,23.32
2018-10-16T16:00:40.490Z,23.29
2018-10-16T16:03:09.971Z,23.29
2018-10-16T16:05:40.028Z,23.24
2018-10-16T16:08:10.189Z,23.21
2018-10-16T16:10:40.042Z,23.19
2018-10-16T16:13:10.753Z,23.16
2018-10-16T16:15:40.810Z,23.29
2018-10-16T16:18:10.815Z,23.24
2018-10-16T16:20:40.371Z,23.25
2018-10-16T16:23:10.718Z,23.27
2018-10-16T16:25:40.765Z,23.33
2018-10-16T16:28:10.886Z,23.36
2018-10-16T16:30:40.562Z,23.40
2018-10-16T16:33:10.277Z,23.52
2018-10-16T16:35:40.293Z,23.57
2018-10-16T16:38:10.430Z,23.69
2018-10-16T16:40:40.373Z,23.78
2018-10-16T16:43:10.508Z,23.85
2018-10-16T16:45:40.202Z,24.02
2018-10-16T16:48:10.158Z,24.25
2018-10-16T16:50:40.407Z,24.38
2018-10-16T16:53:10.514Z,24.49
2018-10-16T16:55:40.142Z,24.70
2018-10-16T16:58:09.997Z,24.87
2018-10-16T17:00:39.810Z,25.03
2018-10-16T17:03:10.437Z,25.15
2018-10-16T17:05:40.172Z,25.41
2018-10-16T17:08:09.966Z,25.56
2018-10-16T17:10:39.551Z,25.58
2018-10-16T17:13:09.298Z,25.69
2018-10-16T17:15:39.025Z,25.53
2018-10-16T17:18:08.685Z,25.40
2018-10-16T17:20:38.413Z,25.72
2018-10-16T17:23:08.194Z,25.63
2018-10-16T17:25:38.213Z,25.93
2018-10-16T17:28:07.999Z,26.29
2018-10-16T17:30:37.613Z,26.64
2018-10-16T17:33:07.991Z,26.84
2018-10-16T17:35:37.597Z,27.35
2018-10-16T17:38:07.179Z,27.34
2018-10-16T17:40:37.010Z,27.57
2018-10-16T17:43:06.890Z,27.86
2018-10-16T17:45:36.634Z,27.84
2018-10-16T17:48:06.451Z,27.89
2018-10-16T17:50:36.187Z,28.34
2018-10-16T17:53:05.837Z,28.51
2018-10-16T17:55:35.796Z,28.53
2018-10-16T17:58:05.710Z,28.71
2018-10-16T18:00:35.604Z,28.66
2018-10-16T18:03:05.094Z,28.68
2018-10-16T18:05:34.457Z,28.82
2018-10-16T18:08:04.072Z,28.90
2018-10-16T18:10:33.776Z,28.94
2018-10-16T18:13:03.479Z,29.25
2018-10-16T18:15:33.150Z,29.24
2018-10-16T18:18:03.147Z,29.46
2018-10-16T18:20:32.822Z,29.71
2018-10-16T18:23:02.552Z,29.79
2018-10-16T18:25:32.277Z,29.72
2018-10-16T18:28:01.962Z,29.94
2018-10-16T18:30:32.143Z,30.07
2018-10-16T18:33:02.251Z,29.72
2018-10-16T18:35:32.085Z,30.24
2018-10-16T18:38:01.768Z,30.27
2018-10-16T18:40:31.455Z,30.18
2018-10-16T18:43:02.006Z,30.27
2018-10-16T18:45:31.766Z,30.43
2018-10-16T18:48:01.751Z,30.39
2018-10-16T18:50:32.731Z,30.49
2018-10-16T18:53:02.679Z,30.49
2018-10-16T18:55:32.187Z,30.55
2018-10-16T18:58:02.699Z,30.56
2018-10-16T19:00:33.098Z,30.49
2018-10-16T19:03:03.310Z,30.81
2018-10-16T19:05:33.326Z,30.97
2018-10-16T19:08:03.524Z,30.77
2018-10-16T19:10:33.130Z,30.86
2018-10-16T19:13:03.531Z,31.00
2018-10-16T19:15:33.384Z,30.62
2018-10-16T19:18:03.042Z,30.64
2018-10-16T19:20:33.779Z,30.99
2018-10-16T19:23:03.446Z,30.76
2018-10-16T19:25:33.539Z,30.96
2018-10-16T19:28:03.315Z,31.15
2018-10-16T19:30:33.035Z,31.30
2018-10-16T19:33:02.636Z,31.25
2018-10-16T19:35:33.565Z,31.29
2018-10-16T19:38:03.082Z,31.37
2018-10-16T19:40:33.050Z,31.49
2018-10-16T19:43:02.794Z,31.21
2018-10-16T19:45:32.590Z,31.43
2018-10-16T19:48:02.227Z,31.41
2018-10-16T19:50:32.014Z,31.55
2018-10-16T19:53:01.904Z,31.25
2018-10-16T19:55:31.952Z,31.30
2018-10-16T19:58:01.582Z,31.27
2018-10-16T20:00:31.290Z,31.53
2018-10-16T20:03:01.502Z,31.53
2018-10-16T20:05:31.616Z,31.34
2018-10-16T20:08:01.634Z,31.28
2018-10-16T20:10:31.461Z,31.56
2018-10-16T20:13:01.150Z,31.59
2018-10-16T20:15:30.902Z,31.72
2018-10-16T20:18:00.650Z,31.52
2018-10-16T20:20:30.364Z,31.50
2018-10-16T20:23:00.270Z,31.59
2018-10-16T20:25:30.794Z,31.44
2018-10-16T20:28:01.412Z,31.51
2018-10-16T20:30:31.490Z,31.49
2018-10-16T20:33:01.486Z,31.48
2018-10-16T20:35:31.371Z,31.44
2018-10-16T20:38:01.156Z,31.52
2018-10-16T20:40:30.815Z,31.49
2018-10-16T20:43:00.648Z,31.37
2018-10-16T20:45:30.363Z,31.40
2018-10-16T20:48:00.082Z,31.19
2018-10-16T20:50:29.763Z,31.21
2018-10-16T20:52:59.663Z,30.84
2018-10-16T20:55:29.333Z,30.83
2018-10-16T20:57:59.043Z,30.71
2018-10-16T21:00:29.021Z,30.96
2018-10-16T21:02:58.658Z,30.84
2018-10-16T21:05:28.476Z,30.45
2018-10-16T21:07:58.182Z,30.84
2018-10-16T21:10:28.015Z,30.82
2018-10-16T21:12:58.011Z,30.72
2018-10-16T21:15:27.610Z,30.69
2018-10-16T21:17:57.360Z,30.84
2018-10-16T21:20:27.131Z,30.75
2018-10-16T21:22:56.914Z,30.87
2018-10-16T21:25:26.547Z,30.93
2018-10-16T21:27:56.295Z,30.55
2018-10-16T21:30:26.877Z,30.40
2018-10-16T21:32:56.649Z,30.69
2018-10-16T21:35:26.570Z,30.72
2018-10-16T21:37:56.294Z,31.12
2018-10-16T21:40:25.955Z,30.64
2018-10-16T21:42:55.703Z,30.47
2018-10-16T21:45:25.768Z,30.32
2018-10-16T21:47:55.529Z,30.67
2018-10-16T21:50:25.293Z,30.37
2018-10-16T21:52:55.092Z,30.63
2018-10-16T21:55:25.121Z,30.44
2018-10-16T21:57:54.822Z,30.33
2018-10-16T22:00:29.314Z,30.35
2018-10-16T22:02:59.229Z,30.40
2018-10-16T22:05:28.878Z,30.01
2018-10-16T22:07:58.675Z,30.59
2018-10-16T22:10:28.385Z,30.28
2018-10-16T22:12:58.068Z,30.15
2018-10-16T22:15:27.692Z,30.20
2018-10-16T22:17:57.470Z,29.73
2018-10-16T22:20:27.315Z,30.12
2018-10-16T22:22:57.049Z,30.06
2018-10-16T22:25:26.753Z,29.69
2018-10-16T22:27:56.442Z,29.88
2018-10-16T22:30:26.087Z,29.89
2018-10-16T22:32:56.045Z,29.57
2018-10-16T22:35:25.673Z,30.09
2018-10-16T22:37:55.364Z,29.63
2018-10-16T22:40:24.990Z,29.38
2018-10-16T22:42:54.765Z,29.43
2018-10-16T22:45:24.266Z,30.22
2018-10-16T22:47:54.131Z,29.82
2018-10-16T22:50:23.721Z,29.73
2018-10-16T22:52:53.407Z,29.99
2018-10-16T22:55:23.148Z,29.53
2018-10-16T22:57:52.845Z,29.99
2018-10-16T23:00:22.611Z,29.72
2018-10-16T23:02:52.258Z,29.97
2018-10-16T23:05:21.934Z,29.69
2018-10-16T23:07:51.601Z,29.71
2018-10-16T23:10:21.484Z,29.68
2018-10-16T23:12:56.203Z,29.66
2018-10-16T23:15:26.022Z,29.58
2018-10-16T23:17:55.690Z,29.74
2018-10-16T23:20:25.499Z,29.56
2018-10-16T23:22:55.178Z,29.34
2018-10-16T23:25:24.882Z,29.37
2018-10-16T23:27:54.565Z,29.41
2018-10-16T23:30:24.314Z,29.18
2018-10-16T23:32:54.009Z,29.47
2018-10-16T23:35:23.594Z,29.45
2018-10-16T23:37:53.225Z,29.11
2018-10-16T23:40:22.870Z,29.14
2018-10-16T23:42:52.663Z,29.49
2018-10-16T23:45:22.437Z,29.05
2018-10-16T23:47:52.121Z,29.26
2018-10-16T23:50:21.686Z,29.32
2018-10-16T23:52:51.416Z,28.66
2018-10-16T23:55:21.182Z,29.06
2018-10-16T23:57:50.811Z,29.15
